sensor_id;sensor_type;location;lat;lon;timestamp;temperature;humidity
14138;DHT22;8199;51.310;9.466;2023-10-09T00:01:49;25.30;48.20
14138;DHT22;8199;51.310;9.466;2023-10-09T00:04:16;25.40;48.20
14138;DHT22;8199;51.310;9.466;2023-10-09T00:06:42;25.40;48.10
14138;DHT22;8199;51.310;9.466;2023-10-09T00:09:08;25.40;48.10
14138;DHT22;8199;51.310;9.466;2023-10-09T00:11:56;25.40;48.20
14138;DHT22;8199;51.310;9.466;2023-10-09T00:14:27;25.30;48.20
14138;DHT22;8199;51.310;9.466;2023-10-09T00:16:56;25.30;48.20
14138;DHT22;8199;51.310;9.466;2023-10-09T00:19:42;25.30;48.30
14138;DHT22;8199;51.310;9.466;2023-10-09T00:22:09;25.30;48.20
14138;DHT22;8199;51.310;9.466;2023-10-09T00:24:54;25.30;48.30
14138;DHT22;8199;51.310;9.466;2023-10-09T00:27:40;25.40;48.20
14138;DHT22;8199;51.310;9.466;2023-10-09T00:30:13;25.40;48.20
14138;DHT22;8199;51.310;9.466;2023-10-09T00:32:41;25.40;48.20
14138;DHT22;8199;51.310;9.466;2023-10-09T00:35:09;25.40;48.20
14138;DHT22;8199;51.310;9.466;2023-10-09T00:37:53;25.30;48.30
14138;DHT22;8199;51.310;9.466;2023-10-09T00:40:30;25.40;48.20
14138;DHT22;8199;51.310;9.466;2023-10-09T00:42:59;25.30;48.20
14138;DHT22;8199;51.310;9.466;2023-10-09T00:45:28;25.40;48.10
14138;DHT22;8199;51.310;9.466;2023-10-09T00:47:58;25.40;48.10
14138;DHT22;8199;51.310;9.466;2023-10-09T00:50:27;25.40;48.20
14138;DHT22;8199;51.310;9.466;2023-10-09T00:53:01;25.30;48.10
14138;DHT22;8199;51.310;9.466;2023-10-09T00:55:32;25.30;48.10
14138;DHT22;8199;51.310;9.466;2023-10-09T00:58:21;25.30;48.20
14138;DHT22;8199;51.310;9.466;2023-10-09T01:00:52;25.30;48.10
14138;DHT22;8199;51.310;9.466;2023-10-09T01:03:19;25.30;48.10
14138;DHT22;8199;51.310;9.466;2023-10-09T01:05:51;25.20;48.20
14138;DHT22;8199;51.310;9.466;2023-10-09T01:08:21;25.20;48.30
14138;DHT22;8199;51.310;9.466;2023-10-09T01:10:58;25.20;48.30
14138;DHT22;8199;51.310;9.466;2023-10-09T01:13:41;25.30;48.20
14138;DHT22;8199;51.310;9.466;2023-10-09T01:16:14;25.30;48.10
14138;DHT22;8199;51.310;9.466;2023-10-09T01:18:55;25.20;48.20
14138;DHT22;8199;51.310;9.466;2023-10-09T01:21:25;25.20;48.20
14138;DHT22;8199;51.310;9.466;2023-10-09T01:23:52;25.20;48.20
14138;DHT22;8199;51.310;9.466;2023-10-09T01:26:37;25.20;48.20
14138;DHT22;8199;51.310;9.466;2023-10-09T01:29:10;25.30;48.20
14138;DHT22;8199;51.310;9.466;2023-10-09T01:31:43;25.20;48.20
14138;DHT22;8199;51.310;9.466;2023-10-09T01:34:13;25.20;48.30
14138;DHT22;8199;51.310;9.466;2023-10-09T01:36:41;25.30;48.20
14138;DHT22;8199;51.310;9.466;2023-10-09T01:39:07;25.30;48.20
14138;DHT22;8199;51.310;9.466;2023-10-09T01:41:53;25.20;48.20
14138;DHT22;8199;51.310;9.466;2023-10-09T01:44:31;25.30;48.20
14138;DHT22;8199;51.310;9.466;2023-10-09T01:47:03;25.20;48.20
14138;DHT22;8199;51.310;9.466;2023-10-09T01:49:40;25.20;48.20
14138;DHT22;8199;51.310;9.466;2023-10-09T01:52:10;25.30;48.30
14138;DHT22;8199;51.310;9.466;2023-10-09T01:54:43;25.20;48.20
14138;DHT22;8199;51.310;9.466;2023-10-09T01:57:13;25.30;48.30
14138;DHT22;8199;51.310;9.466;2023-10-09T01:59:42;25.20;48.30
14138;DHT22;8199;51.310;9.466;2023-10-09T02:02:18;25.20;48.30
14138;DHT22;8199;51.310;9.466;2023-10-09T02:04:53;25.20;48.40
14138;DHT22;8199;51.310;9.466;2023-10-09T02:07:39;25.20;48.40
14138;DHT22;8199;51.310;9.466;2023-10-09T02:10:17;25.20;48.30
14138;DHT22;8199;51.310;9.466;2023-10-09T02:13:01;25.20;48.30
14138;DHT22;8199;51.310;9.466;2023-10-09T02:15:35;25.20;48.20
14138;DHT22;8199;51.310;9.466;2023-10-09T02:18:20;25.20;48.20
14138;DHT22;8199;51.310;9.466;2023-10-09T02:23:31;25.20;48.40
14138;DHT22;8199;51.310;9.466;2023-10-09T02:26:16;25.30;48.30
14138;DHT22;8199;51.310;9.466;2023-10-09T02:28:54;25.20;48.20
14138;DHT22;8199;51.310;9.466;2023-10-09T02:31:30;25.20;48.30
14138;DHT22;8199;51.310;9.466;2023-10-09T02:34:17;25.20;48.80
14138;DHT22;8199;51.310;9.466;2023-10-09T02:36:46;25.10;48.40
14138;DHT22;8199;51.310;9.466;2023-10-09T02:39:25;25.20;48.30
14138;DHT22;8199;51.310;9.466;2023-10-09T02:41:58;25.20;48.30
14138;DHT22;8199;51.310;9.466;2023-10-09T02:44:31;25.20;48.40
14138;DHT22;8199;51.310;9.466;2023-10-09T02:46:59;25.20;48.30
14138;DHT22;8199;51.310;9.466;2023-10-09T02:49:30;25.30;48.30
14138;DHT22;8199;51.310;9.466;2023-10-09T02:51:56;25.20;48.30
14138;DHT22;8199;51.310;9.466;2023-10-09T02:54:21;25.20;48.40
14138;DHT22;8199;51.310;9.466;2023-10-09T02:56:48;25.20;48.30
14138;DHT22;8199;51.310;9.466;2023-10-09T02:59:21;25.20;48.40
14138;DHT22;8199;51.310;9.466;2023-10-09T03:01:50;25.20;48.30
14138;DHT22;8199;51.310;9.466;2023-10-09T03:04:18;25.30;48.30
14138;DHT22;8199;51.310;9.466;2023-10-09T03:06:45;25.20;48.30
14138;DHT22;8199;51.310;9.466;2023-10-09T03:09:19;25.20;48.30
14138;DHT22;8199;51.310;9.466;2023-10-09T03:11:53;25.20;48.30
14138;DHT22;8199;51.310;9.466;2023-10-09T03:14:22;25.10;48.40
14138;DHT22;8199;51.310;9.466;2023-10-09T03:16:52;25.20;48.40
14138;DHT22;8199;51.310;9.466;2023-10-09T03:19:18;25.20;48.30
14138;DHT22;8199;51.310;9.466;2023-10-09T03:21:44;25.20;48.40
14138;DHT22;8199;51.310;9.466;2023-10-09T03:24:09;25.20;48.30
14138;DHT22;8199;51.310;9.466;2023-10-09T03:26:37;25.20;48.30
14138;DHT22;8199;51.310;9.466;2023-10-09T03:29:03;25.20;48.40
14138;DHT22;8199;51.310;9.466;2023-10-09T03:31:35;25.20;48.40
14138;DHT22;8199;51.310;9.466;2023-10-09T03:34:02;25.20;48.30
14138;DHT22;8199;51.310;9.466;2023-10-09T03:36:28;25.20;48.20
14138;DHT22;8199;51.310;9.466;2023-10-09T03:38:56;25.20;48.30
14138;DHT22;8199;51.310;9.466;2023-10-09T03:41:24;25.20;48.30
14138;DHT22;8199;51.310;9.466;2023-10-09T03:43:52;25.20;48.20
14138;DHT22;8199;51.310;9.466;2023-10-09T03:46:20;25.20;48.20
14138;DHT22;8199;51.310;9.466;2023-10-09T03:48:50;25.20;48.20
14138;DHT22;8199;51.310;9.466;2023-10-09T03:51:17;25.20;48.20
14138;DHT22;8199;51.310;9.466;2023-10-09T03:53:49;25.20;48.20
14138;DHT22;8199;51.310;9.466;2023-10-09T03:56:15;25.10;48.20
14138;DHT22;8199;51.310;9.466;2023-10-09T03:58:45;25.20;48.20
14138;DHT22;8199;51.310;9.466;2023-10-09T04:01:12;25.10;48.10
14138;DHT22;8199;51.310;9.466;2023-10-09T04:03:58;25.20;48.20
14138;DHT22;8199;51.310;9.466;2023-10-09T04:06:29;25.20;48.20
14138;DHT22;8199;51.310;9.466;2023-10-09T04:09:17;25.20;48.20
14138;DHT22;8199;51.310;9.466;2023-10-09T04:11:49;25.10;48.20
14138;DHT22;8199;51.310;9.466;2023-10-09T04:14:34;25.10;48.30
14138;DHT22;8199;51.310;9.466;2023-10-09T04:17:00;25.20;48.20
14138;DHT22;8199;51.310;9.466;2023-10-09T04:19:31;25.00;48.20
14138;DHT22;8199;51.310;9.466;2023-10-09T04:22:05;25.10;48.20
14138;DHT22;8199;51.310;9.466;2023-10-09T04:24:34;25.10;48.30
14138;DHT22;8199;51.310;9.466;2023-10-09T04:27:07;25.10;48.30
14138;DHT22;8199;51.310;9.466;2023-10-09T04:29:34;25.20;48.30
14138;DHT22;8199;51.310;9.466;2023-10-09T04:32:09;25.20;48.30
14138;DHT22;8199;51.310;9.466;2023-10-09T04:34:41;25.20;48.20
14138;DHT22;8199;51.310;9.466;2023-10-09T04:37:36;25.10;48.30
14138;DHT22;8199;51.310;9.466;2023-10-09T04:40:03;25.10;48.30
14138;DHT22;8199;51.310;9.466;2023-10-09T04:42:40;25.20;48.40
14138;DHT22;8199;51.310;9.466;2023-10-09T04:45:23;25.20;48.50
14138;DHT22;8199;51.310;9.466;2023-10-09T04:48:07;25.10;48.30
14138;DHT22;8199;51.310;9.466;2023-10-09T04:50:34;25.10;48.30
14138;DHT22;8199;51.310;9.466;2023-10-09T04:53:00;25.10;48.40
14138;DHT22;8199;51.310;9.466;2023-10-09T04:55:44;25.10;48.40
14138;DHT22;8199;51.310;9.466;2023-10-09T04:58:20;24.90;49.20
14138;DHT22;8199;51.310;9.466;2023-10-09T05:00:49;25.00;48.90
14138;DHT22;8199;51.310;9.466;2023-10-09T05:03:30;25.10;48.60
14138;DHT22;8199;51.310;9.466;2023-10-09T05:06:04;25.10;48.60
14138;DHT22;8199;51.310;9.466;2023-10-09T05:08:46;25.10;48.50
14138;DHT22;8199;51.310;9.466;2023-10-09T05:11:13;25.20;48.40
14138;DHT22;8199;51.310;9.466;2023-10-09T05:13:57;25.20;48.30
14138;DHT22;8199;51.310;9.466;2023-10-09T05:16:38;25.10;48.30
14138;DHT22;8199;51.310;9.466;2023-10-09T05:19:22;25.20;48.30
14138;DHT22;8199;51.310;9.466;2023-10-09T05:22:06;25.10;48.30
14138;DHT22;8199;51.310;9.466;2023-10-09T05:24:35;25.20;48.30
14138;DHT22;8199;51.310;9.466;2023-10-09T05:27:12;25.20;48.20
14138;DHT22;8199;51.310;9.466;2023-10-09T05:29:44;25.20;48.30
14138;DHT22;8199;51.310;9.466;2023-10-09T05:32:25;25.20;48.20
14138;DHT22;8199;51.310;9.466;2023-10-09T05:34:55;25.10;48.30
14138;DHT22;8199;51.310;9.466;2023-10-09T05:37:29;25.10;48.40
14138;DHT22;8199;51.310;9.466;2023-10-09T05:40:03;25.10;48.30
14138;DHT22;8199;51.310;9.466;2023-10-09T05:42:47;25.10;48.30
14138;DHT22;8199;51.310;9.466;2023-10-09T05:45:23;25.20;48.30
14138;DHT22;8199;51.310;9.466;2023-10-09T05:48:07;25.20;48.30
14138;DHT22;8199;51.310;9.466;2023-10-09T05:50:52;25.10;48.40
14138;DHT22;8199;51.310;9.466;2023-10-09T05:53:38;25.00;48.70
14138;DHT22;8199;51.310;9.466;2023-10-09T05:56:11;25.00;48.30
14138;DHT22;8199;51.310;9.466;2023-10-09T05:58:55;25.10;48.30
14138;DHT22;8199;51.310;9.466;2023-10-09T06:01:39;25.00;48.50
14138;DHT22;8199;51.310;9.466;2023-10-09T06:04:24;24.90;48.60
14138;DHT22;8199;51.310;9.466;2023-10-09T06:07:08;24.90;48.60
14138;DHT22;8199;51.310;9.466;2023-10-09T06:09:38;25.00;48.80
14138;DHT22;8199;51.310;9.466;2023-10-09T06:12:18;25.00;48.80
14138;DHT22;8199;51.310;9.466;2023-10-09T06:15:15;25.00;48.90
14138;DHT22;8199;51.310;9.466;2023-10-09T06:17:46;25.00;49.10
14138;DHT22;8199;51.310;9.466;2023-10-09T06:20:17;25.00;49.10
14138;DHT22;8199;51.310;9.466;2023-10-09T06:23:02;25.00;49.10
14138;DHT22;8199;51.310;9.466;2023-10-09T06:25:44;25.00;49.10
14138;DHT22;8199;51.310;9.466;2023-10-09T06:28:28;24.90;49.20
14138;DHT22;8199;51.310;9.466;2023-10-09T06:30:59;25.00;49.20
14138;DHT22;8199;51.310;9.466;2023-10-09T06:33:45;25.00;49.30
14138;DHT22;8199;51.310;9.466;2023-10-09T06:36:30;24.90;49.40
14138;DHT22;8199;51.310;9.466;2023-10-09T06:38:56;25.00;49.50
14138;DHT22;8199;51.310;9.466;2023-10-09T06:41:48;24.80;49.60
14138;DHT22;8199;51.310;9.466;2023-10-09T06:44:33;25.00;49.20
14138;DHT22;8199;51.310;9.466;2023-10-09T06:47:17;25.00;49.10
14138;DHT22;8199;51.310;9.466;2023-10-09T06:49:44;25.00;49.20
14138;DHT22;8199;51.310;9.466;2023-10-09T06:52:29;25.00;49.20
14138;DHT22;8199;51.310;9.466;2023-10-09T06:55:15;25.00;49.20
14138;DHT22;8199;51.310;9.466;2023-10-09T06:57:45;25.00;49.20
14138;DHT22;8199;51.310;9.466;2023-10-09T07:00:15;25.00;49.10
14138;DHT22;8199;51.310;9.466;2023-10-09T07:02:59;25.00;49.20
14138;DHT22;8199;51.310;9.466;2023-10-09T07:05:37;24.80;49.60
14138;DHT22;8199;51.310;9.466;2023-10-09T07:08:22;24.90;49.70
14138;DHT22;8199;51.310;9.466;2023-10-09T07:10:58;25.00;49.60
14138;DHT22;8199;51.310;9.466;2023-10-09T07:13:45;25.00;49.30
14138;DHT22;8199;51.310;9.466;2023-10-09T07:16:20;25.00;49.40
14138;DHT22;8199;51.310;9.466;2023-10-09T07:18:49;24.90;49.70
14138;DHT22;8199;51.310;9.466;2023-10-09T07:21:15;24.90;49.70
14138;DHT22;8199;51.310;9.466;2023-10-09T07:23:43;24.90;49.50
14138;DHT22;8199;51.310;9.466;2023-10-09T07:26:14;24.80;49.40
14138;DHT22;8199;51.310;9.466;2023-10-09T07:28:44;24.80;49.40
14138;DHT22;8199;51.310;9.466;2023-10-09T07:31:17;24.80;49.30
14138;DHT22;8199;51.310;9.466;2023-10-09T07:33:51;24.90;49.70
14138;DHT22;8199;51.310;9.466;2023-10-09T07:36:22;24.90;49.80
14138;DHT22;8199;51.310;9.466;2023-10-09T07:39:03;25.00;49.90
14138;DHT22;8199;51.310;9.466;2023-10-09T07:41:38;25.00;50.00
14138;DHT22;8199;51.310;9.466;2023-10-09T07:44:10;24.90;50.10
14138;DHT22;8199;51.310;9.466;2023-10-09T07:46:44;24.90;50.20
14138;DHT22;8199;51.310;9.466;2023-10-09T07:49:39;24.90;50.30
14138;DHT22;8199;51.310;9.466;2023-10-09T07:52:04;25.00;50.60
14138;DHT22;8199;51.310;9.466;2023-10-09T07:54:31;25.00;50.00
14138;DHT22;8199;51.310;9.466;2023-10-09T07:57:16;25.10;50.40
14138;DHT22;8199;51.310;9.466;2023-10-09T07:59:42;25.10;50.00
14138;DHT22;8199;51.310;9.466;2023-10-09T08:02:23;25.10;50.40
14138;DHT22;8199;51.310;9.466;2023-10-09T08:05:01;25.20;50.40
14138;DHT22;8199;51.310;9.466;2023-10-09T08:07:32;25.20;50.40
14138;DHT22;8199;51.310;9.466;2023-10-09T08:10:05;25.20;50.60
14138;DHT22;8199;51.310;9.466;2023-10-09T08:12:43;25.20;50.20
14138;DHT22;8199;51.310;9.466;2023-10-09T08:15:15;25.20;50.40
14138;DHT22;8199;51.310;9.466;2023-10-09T08:17:56;25.10;50.30
14138;DHT22;8199;51.310;9.466;2023-10-09T08:20:26;25.10;50.20
14138;DHT22;8199;51.310;9.466;2023-10-09T08:22:55;25.10;50.20
14138;DHT22;8199;51.310;9.466;2023-10-09T08:25:22;25.20;50.20
14138;DHT22;8199;51.310;9.466;2023-10-09T08:28:02;25.20;50.20
14138;DHT22;8199;51.310;9.466;2023-10-09T08:30:40;25.20;50.10
14138;DHT22;8199;51.310;9.466;2023-10-09T08:33:15;25.20;50.10
14138;DHT22;8199;51.310;9.466;2023-10-09T08:35:54;25.20;50.20
14138;DHT22;8199;51.310;9.466;2023-10-09T08:38:33;25.20;50.20
14138;DHT22;8199;51.310;9.466;2023-10-09T08:41:12;25.10;50.10
14138;DHT22;8199;51.310;9.466;2023-10-09T08:43:53;25.10;50.00
14138;DHT22;8199;51.310;9.466;2023-10-09T08:46:23;25.10;50.20
14138;DHT22;8199;51.310;9.466;2023-10-09T08:48:50;25.10;50.10
14138;DHT22;8199;51.310;9.466;2023-10-09T08:51:17;25.20;50.00
14138;DHT22;8199;51.310;9.466;2023-10-09T08:53:44;25.10;50.20
14138;DHT22;8199;51.310;9.466;2023-10-09T08:56:15;25.10;50.10
14138;DHT22;8199;51.310;9.466;2023-10-09T08:58:45;25.10;50.20
14138;DHT22;8199;51.310;9.466;2023-10-09T09:01:16;25.10;50.10
14138;DHT22;8199;51.310;9.466;2023-10-09T09:03:42;24.90;50.30
14138;DHT22;8199;51.310;9.466;2023-10-09T09:06:09;25.00;49.80
14138;DHT22;8199;51.310;9.466;2023-10-09T09:08:36;25.00;49.90
14138;DHT22;8199;51.310;9.466;2023-10-09T09:11:02;25.00;49.60
14138;DHT22;8199;51.310;9.466;2023-10-09T09:13:44;25.00;49.50
14138;DHT22;8199;51.310;9.466;2023-10-09T09:16:19;25.10;49.40
14138;DHT22;8199;51.310;9.466;2023-10-09T09:18:56;25.10;49.30
14138;DHT22;8199;51.310;9.466;2023-10-09T09:21:36;25.10;49.30
14138;DHT22;8199;51.310;9.466;2023-10-09T09:24:07;24.90;50.00
14138;DHT22;8199;51.310;9.466;2023-10-09T09:27:02;25.00;50.00
14138;DHT22;8199;51.310;9.466;2023-10-09T09:29:47;24.60;50.50
14138;DHT22;8199;51.310;9.466;2023-10-09T09:32:27;24.40;50.80
14138;DHT22;8199;51.310;9.466;2023-10-09T09:35:01;24.50;50.90
14138;DHT22;8199;51.310;9.466;2023-10-09T09:37:28;24.70;50.60
14138;DHT22;8199;51.310;9.466;2023-10-09T09:39:57;24.70;50.40
14138;DHT22;8199;51.310;9.466;2023-10-09T09:42:23;24.70;50.50
14138;DHT22;8199;51.310;9.466;2023-10-09T09:44:52;24.80;50.40
14138;DHT22;8199;51.310;9.466;2023-10-09T09:47:19;24.80;50.40
14138;DHT22;8199;51.310;9.466;2023-10-09T09:49:54;24.80;50.20
14138;DHT22;8199;51.310;9.466;2023-10-09T09:52:30;24.90;50.20
14138;DHT22;8199;51.310;9.466;2023-10-09T09:55:05;25.00;50.00
14138;DHT22;8199;51.310;9.466;2023-10-09T09:57:32;24.90;50.00
14138;DHT22;8199;51.310;9.466;2023-10-09T10:00:04;24.90;50.10
14138;DHT22;8199;51.310;9.466;2023-10-09T10:02:36;25.00;50.10
14138;DHT22;8199;51.310;9.466;2023-10-09T10:05:06;24.90;50.10
14138;DHT22;8199;51.310;9.466;2023-10-09T10:07:34;24.90;50.50
14138;DHT22;8199;51.310;9.466;2023-10-09T10:10:40;24.80;50.00
14138;DHT22;8199;51.310;9.466;2023-10-09T10:16:12;24.90;50.10
14138;DHT22;8199;51.310;9.466;2023-10-09T10:19:03;24.80;50.00
14138;DHT22;8199;51.310;9.466;2023-10-09T10:21:44;24.80;50.10
14138;DHT22;8199;51.310;9.466;2023-10-09T10:27:16;24.80;50.30
14138;DHT22;8199;51.310;9.466;2023-10-09T10:33:08;24.70;50.30
14138;DHT22;8199;51.310;9.466;2023-10-09T10:35:41;24.70;50.40
14138;DHT22;8199;51.310;9.466;2023-10-09T10:38:31;24.80;50.20
14138;DHT22;8199;51.310;9.466;2023-10-09T10:41:17;25.00;50.00
14138;DHT22;8199;51.310;9.466;2023-10-09T10:43:46;24.90;50.00
14138;DHT22;8199;51.310;9.466;2023-10-09T10:46:22;24.80;50.10
14138;DHT22;8199;51.310;9.466;2023-10-09T10:49:01;24.60;50.40
14138;DHT22;8199;51.310;9.466;2023-10-09T10:51:42;24.70;50.30
14138;DHT22;8199;51.310;9.466;2023-10-09T10:54:21;24.70;50.40
14138;DHT22;8199;51.310;9.466;2023-10-09T10:56:59;24.60;50.40
14138;DHT22;8199;51.310;9.466;2023-10-09T10:59:30;24.60;50.40
14138;DHT22;8199;51.310;9.466;2023-10-09T11:02:02;24.70;50.30
14138;DHT22;8199;51.310;9.466;2023-10-09T11:04:34;24.60;50.40
14138;DHT22;8199;51.310;9.466;2023-10-09T11:07:10;24.50;50.40
14138;DHT22;8199;51.310;9.466;2023-10-09T11:09:48;24.60;50.40
14138;DHT22;8199;51.310;9.466;2023-10-09T11:12:45;24.60;50.30
14138;DHT22;8199;51.310;9.466;2023-10-09T11:15:36;24.70;50.30
14138;DHT22;8199;51.310;9.466;2023-10-09T11:18:23;24.70;50.30
14138;DHT22;8199;51.310;9.466;2023-10-09T11:20:54;24.70;50.80
14138;DHT22;8199;51.310;9.466;2023-10-09T11:23:30;24.70;50.20
14138;DHT22;8199;51.310;9.466;2023-10-09T11:25:59;24.70;50.10
14138;DHT22;8199;51.310;9.466;2023-10-09T11:28:44;24.80;50.00
14138;DHT22;8199;51.310;9.466;2023-10-09T11:31:23;24.70;50.20
14138;DHT22;8199;51.310;9.466;2023-10-09T11:33:50;24.80;50.20
14138;DHT22;8199;51.310;9.466;2023-10-09T11:36:21;24.70;50.30
14138;DHT22;8199;51.310;9.466;2023-10-09T11:39:02;24.70;50.30
14138;DHT22;8199;51.310;9.466;2023-10-09T11:41:44;24.80;50.20
14138;DHT22;8199;51.310;9.466;2023-10-09T11:44:10;24.70;50.30
14138;DHT22;8199;51.310;9.466;2023-10-09T11:47:02;24.70;50.10
14138;DHT22;8199;51.310;9.466;2023-10-09T11:49:54;24.80;50.20
14138;DHT22;8199;51.310;9.466;2023-10-09T11:52:26;24.70;50.30
14138;DHT22;8199;51.310;9.466;2023-10-09T11:55:06;24.70;50.30
14138;DHT22;8199;51.310;9.466;2023-10-09T11:57:41;24.70;50.10
14138;DHT22;8199;51.310;9.466;2023-10-09T12:00:08;24.80;50.00
14138;DHT22;8199;51.310;9.466;2023-10-09T12:02:50;24.80;50.10
14138;DHT22;8199;51.310;9.466;2023-10-09T12:05:17;24.80;50.00
14138;DHT22;8199;51.310;9.466;2023-10-09T12:07:45;24.80;49.80
14138;DHT22;8199;51.310;9.466;2023-10-09T12:10:11;24.80;49.80
14138;DHT22;8199;51.310;9.466;2023-10-09T12:12:39;24.90;49.80
14138;DHT22;8199;51.310;9.466;2023-10-09T12:15:06;24.80;49.70
14138;DHT22;8199;51.310;9.466;2023-10-09T12:17:32;24.70;49.80
14138;DHT22;8199;51.310;9.466;2023-10-09T12:19:57;24.70;49.90
14138;DHT22;8199;51.310;9.466;2023-10-09T12:22:24;24.80;49.70
14138;DHT22;8199;51.310;9.466;2023-10-09T12:24:52;24.80;49.90
14138;DHT22;8199;51.310;9.466;2023-10-09T12:27:18;24.90;49.70
14138;DHT22;8199;51.310;9.466;2023-10-09T12:29:46;25.00;49.70
14138;DHT22;8199;51.310;9.466;2023-10-09T12:32:11;25.00;49.70
14138;DHT22;8199;51.310;9.466;2023-10-09T12:34:38;25.00;49.60
14138;DHT22;8199;51.310;9.466;2023-10-09T12:37:04;25.00;49.60
14138;DHT22;8199;51.310;9.466;2023-10-09T12:39:30;25.00;49.70
14138;DHT22;8199;51.310;9.466;2023-10-09T12:42:06;25.00;49.70
14138;DHT22;8199;51.310;9.466;2023-10-09T12:44:37;25.00;49.60
14138;DHT22;8199;51.310;9.466;2023-10-09T12:47:06;24.90;49.70
14138;DHT22;8199;51.310;9.466;2023-10-09T12:49:31;24.80;49.80
14138;DHT22;8199;51.310;9.466;2023-10-09T12:51:57;24.80;49.80
14138;DHT22;8199;51.310;9.466;2023-10-09T12:54:26;24.90;49.70
14138;DHT22;8199;51.310;9.466;2023-10-09T12:56:55;24.90;49.90
14138;DHT22;8199;51.310;9.466;2023-10-09T12:59:21;25.00;49.90
14138;DHT22;8199;51.310;9.466;2023-10-09T13:01:48;24.90;49.80
14138;DHT22;8199;51.310;9.466;2023-10-09T13:04:18;24.80;49.70
14138;DHT22;8199;51.310;9.466;2023-10-09T13:06:48;24.80;49.90
14138;DHT22;8199;51.310;9.466;2023-10-09T13:09:17;24.80;49.90
14138;DHT22;8199;51.310;9.466;2023-10-09T13:11:50;24.70;49.90
14138;DHT22;8199;51.310;9.466;2023-10-09T13:14:16;24.80;49.90
14138;DHT22;8199;51.310;9.466;2023-10-09T13:16:43;24.90;49.90
14138;DHT22;8199;51.310;9.466;2023-10-09T13:19:09;24.80;49.80
14138;DHT22;8199;51.310;9.466;2023-10-09T13:21:38;24.90;49.90
14138;DHT22;8199;51.310;9.466;2023-10-09T13:24:06;24.80;49.90
14138;DHT22;8199;51.310;9.466;2023-10-09T13:26:38;24.90;49.70
14138;DHT22;8199;51.310;9.466;2023-10-09T13:29:04;25.00;49.60
14138;DHT22;8199;51.310;9.466;2023-10-09T13:31:34;25.00;49.60
14138;DHT22;8199;51.310;9.466;2023-10-09T13:34:04;25.00;49.50
14138;DHT22;8199;51.310;9.466;2023-10-09T13:36:32;24.90;49.60
14138;DHT22;8199;51.310;9.466;2023-10-09T13:39:04;24.90;49.70
14138;DHT22;8199;51.310;9.466;2023-10-09T13:41:52;24.90;49.80
14138;DHT22;8199;51.310;9.466;2023-10-09T13:44:29;24.80;49.80
14138;DHT22;8199;51.310;9.466;2023-10-09T13:47:05;24.80;49.80
14138;DHT22;8199;51.310;9.466;2023-10-09T13:49:31;24.90;49.70
14138;DHT22;8199;51.310;9.466;2023-10-09T13:51:59;24.90;49.70
14138;DHT22;8199;51.310;9.466;2023-10-09T13:54:26;24.90;49.80
14138;DHT22;8199;51.310;9.466;2023-10-09T13:56:58;24.90;49.70
14138;DHT22;8199;51.310;9.466;2023-10-09T13:59:24;24.90;49.70
14138;DHT22;8199;51.310;9.466;2023-10-09T14:01:53;24.80;49.80
14138;DHT22;8199;51.310;9.466;2023-10-09T14:04:22;24.80;49.70
14138;DHT22;8199;51.310;9.466;2023-10-09T14:06:49;24.70;49.80
14138;DHT22;8199;51.310;9.466;2023-10-09T14:09:25;24.70;49.80
14138;DHT22;8199;51.310;9.466;2023-10-09T14:12:04;24.70;49.60
14138;DHT22;8199;51.310;9.466;2023-10-09T14:14:42;24.70;49.90
14138;DHT22;8199;51.310;9.466;2023-10-09T14:17:15;24.70;50.50
14138;DHT22;8199;51.310;9.466;2023-10-09T14:19:47;24.70;50.30
14138;DHT22;8199;51.310;9.466;2023-10-09T14:22:17;24.70;50.50
14138;DHT22;8199;51.310;9.466;2023-10-09T14:24:44;24.80;50.40
14138;DHT22;8199;51.310;9.466;2023-10-09T14:27:16;24.70;50.20
14138;DHT22;8199;51.310;9.466;2023-10-09T14:29:48;24.80;50.10
14138;DHT22;8199;51.310;9.466;2023-10-09T14:32:14;24.80;50.10
14138;DHT22;8199;51.310;9.466;2023-10-09T14:34:44;24.80;50.10
14138;DHT22;8199;51.310;9.466;2023-10-09T14:37:19;24.80;50.10
14138;DHT22;8199;51.310;9.466;2023-10-09T14:39:46;24.80;50.10
14138;DHT22;8199;51.310;9.466;2023-10-09T14:42:14;24.80;50.10
14138;DHT22;8199;51.310;9.466;2023-10-09T14:44:41;24.80;50.10
14138;DHT22;8199;51.310;9.466;2023-10-09T14:47:07;24.80;50.10
14138;DHT22;8199;51.310;9.466;2023-10-09T14:49:35;24.80;50.10
14138;DHT22;8199;51.310;9.466;2023-10-09T14:52:03;24.80;50.10
14138;DHT22;8199;51.310;9.466;2023-10-09T14:54:29;24.80;50.30
14138;DHT22;8199;51.310;9.466;2023-10-09T14:56:55;24.80;50.20
14138;DHT22;8199;51.310;9.466;2023-10-09T14:59:22;24.90;50.10
14138;DHT22;8199;51.310;9.466;2023-10-09T15:01:48;24.80;50.30
14138;DHT22;8199;51.310;9.466;2023-10-09T15:04:15;24.80;50.40
14138;DHT22;8199;51.310;9.466;2023-10-09T15:06:41;24.80;50.60
14138;DHT22;8199;51.310;9.466;2023-10-09T15:09:07;24.80;50.50
14138;DHT22;8199;51.310;9.466;2023-10-09T15:11:47;24.90;50.60
14138;DHT22;8199;51.310;9.466;2023-10-09T15:14:14;25.00;50.30
14138;DHT22;8199;51.310;9.466;2023-10-09T15:16:39;25.00;50.60
14138;DHT22;8199;51.310;9.466;2023-10-09T15:19:08;25.10;50.20
14138;DHT22;8199;51.310;9.466;2023-10-09T15:21:36;25.00;50.20
14138;DHT22;8199;51.310;9.466;2023-10-09T15:26:48;25.00;50.30
14138;DHT22;8199;51.310;9.466;2023-10-09T15:29:24;25.00;50.30
14138;DHT22;8199;51.310;9.466;2023-10-09T15:31:57;25.00;50.40
14138;DHT22;8199;51.310;9.466;2023-10-09T15:34:30;24.90;50.40
14138;DHT22;8199;51.310;9.466;2023-10-09T15:36:56;24.90;50.70
14138;DHT22;8199;51.310;9.466;2023-10-09T15:39:22;24.90;50.10
14138;DHT22;8199;51.310;9.466;2023-10-09T15:41:49;25.00;50.00
14138;DHT22;8199;51.310;9.466;2023-10-09T15:44:16;25.00;49.90
14138;DHT22;8199;51.310;9.466;2023-10-09T15:46:42;25.00;49.80
14138;DHT22;8199;51.310;9.466;2023-10-09T15:49:11;25.00;49.80
14138;DHT22;8199;51.310;9.466;2023-10-09T15:51:38;25.00;50.30
14138;DHT22;8199;51.310;9.466;2023-10-09T15:54:04;25.00;49.90
14138;DHT22;8199;51.310;9.466;2023-10-09T15:56:29;25.00;49.90
14138;DHT22;8199;51.310;9.466;2023-10-09T15:58:55;24.90;49.90
14138;DHT22;8199;51.310;9.466;2023-10-09T16:01:22;25.00;50.00
14138;DHT22;8199;51.310;9.466;2023-10-09T16:03:48;24.90;49.90
14138;DHT22;8199;51.310;9.466;2023-10-09T16:06:14;25.00;49.80
14138;DHT22;8199;51.310;9.466;2023-10-09T16:08:46;25.00;49.80
14138;DHT22;8199;51.310;9.466;2023-10-09T16:11:20;25.00;49.80
14138;DHT22;8199;51.310;9.466;2023-10-09T16:13:51;25.00;49.80
14138;DHT22;8199;51.310;9.466;2023-10-09T16:16:29;25.00;49.80
14138;DHT22;8199;51.310;9.466;2023-10-09T16:18:55;25.00;49.90
14138;DHT22;8199;51.310;9.466;2023-10-09T16:21:23;24.90;50.00
14138;DHT22;8199;51.310;9.466;2023-10-09T16:23:50;25.00;50.00
14138;DHT22;8199;51.310;9.466;2023-10-09T16:26:16;25.00;50.10
14138;DHT22;8199;51.310;9.466;2023-10-09T16:28:43;24.90;50.20
14138;DHT22;8199;51.310;9.466;2023-10-09T16:31:10;24.90;50.20
14138;DHT22;8199;51.310;9.466;2023-10-09T16:33:40;24.90;50.00
14138;DHT22;8199;51.310;9.466;2023-10-09T16:36:06;24.80;50.10
14138;DHT22;8199;51.310;9.466;2023-10-09T16:38:32;24.90;50.20